createdAt,value
2023-05-13T00:02:03.218Z,2.70
2023-05-13T00:04:30.268Z,2.50
2023-05-13T00:06:57.414Z,1.70
2023-05-13T00:09:24.567Z,1.80
2023-05-13T00:11:51.715Z,2.00
2023-05-13T00:14:18.967Z,1.80
2023-05-13T00:16:46.055Z,1.80
2023-05-13T00:19:13.243Z,2.00
2023-05-13T00:21:40.724Z,1.80
2023-05-13T00:24:07.852Z,2.10
2023-05-13T00:26:34.815Z,1.90
2023-05-13T00:29:01.759Z,1.90
2023-05-13T00:31:29.296Z,1.90
2023-05-13T00:33:56.673Z,2.00
2023-05-13T00:36:24.180Z,1.60
2023-05-13T00:38:51.194Z,1.60
2023-05-13T00:41:18.385Z,1.60
2023-05-13T00:43:47.117Z,1.80
2023-05-13T00:46:15.072Z,1.70
2023-05-13T00:48:42.234Z,1.60
2023-05-13T00:51:09.057Z,1.90
2023-05-13T00:53:35.945Z,1.60
2023-05-13T00:56:03.169Z,1.70
2023-05-13T00:58:30.628Z,1.30
2023-05-13T01:01:13.057Z,1.40
2023-05-13T01:03:58.007Z,1.90
2023-05-13T01:06:48.809Z,1.40
2023-05-13T01:09:25.891Z,1.60
2023-05-13T01:11:53.338Z,1.80
2023-05-13T01:14:25.927Z,1.60
2023-05-13T01:16:58.060Z,1.80
2023-05-13T01:19:32.727Z,1.80
2023-05-13T01:21:59.654Z,1.80
2023-05-13T01:24:27.057Z,2.10
2023-05-13T01:26:54.360Z,1.80
2023-05-13T01:29:21.919Z,1.80
2023-05-13T01:31:49.789Z,1.60
2023-05-13T01:34:19.184Z,1.50
2023-05-13T01:36:46.134Z,1.80
2023-05-13T01:39:13.389Z,2.00
2023-05-13T01:41:40.741Z,1.60
2023-05-13T01:44:08.294Z,1.60
2023-05-13T01:46:37.014Z,2.00
2023-05-13T01:49:04.544Z,1.80
2023-05-13T01:51:31.690Z,2.30
2023-05-13T01:53:58.737Z,2.00
2023-05-13T01:56:26.295Z,2.00
2023-05-13T01:58:53.543Z,1.80
2023-05-13T02:01:22.431Z,2.10
2023-05-13T02:03:50.462Z,2.30
2023-05-13T02:06:17.756Z,2.00
2023-05-13T02:08:44.813Z,2.10
2023-05-13T02:11:11.854Z,2.60
2023-05-13T02:13:39.111Z,1.70
2023-05-13T02:16:06.058Z,1.70
2023-05-13T02:18:33.289Z,2.00
2023-05-13T02:21:00.451Z,2.00
2023-05-13T02:23:29.242Z,2.00
2023-05-13T02:25:56.416Z,1.90
2023-05-13T02:28:24.052Z,2.00
2023-05-13T02:30:51.197Z,2.70
2023-05-13T02:33:18.348Z,2.80
2023-05-13T02:35:45.732Z,2.60
2023-05-13T02:38:13.056Z,3.20
2023-05-13T02:40:40.103Z,2.90
2023-05-13T02:43:07.360Z,3.00
2023-05-13T02:45:46.833Z,2.70
2023-05-13T02:48:14.369Z,3.10
2023-05-13T02:50:41.706Z,2.70
2023-05-13T02:53:09.471Z,2.90
2023-05-13T02:55:38.072Z,3.30
2023-05-13T02:58:05.513Z,2.90
2023-05-13T03:00:32.598Z,2.90
2023-05-13T03:02:59.909Z,2.90
2023-05-13T03:05:29.204Z,2.70
2023-05-13T03:07:57.903Z,2.80
2023-05-13T03:10:26.180Z,2.50
2023-05-13T03:12:53.440Z,2.90
2023-05-13T03:15:20.781Z,2.70
2023-05-13T03:17:47.919Z,2.80
2023-05-13T03:20:15.080Z,2.40
2023-05-13T03:22:42.661Z,2.80
2023-05-13T03:25:11.116Z,2.70
2023-05-13T03:27:44.409Z,2.60
2023-05-13T03:30:12.070Z,3.10
2023-05-13T03:32:53.754Z,2.90
2023-05-13T03:35:20.917Z,2.50
2023-05-13T03:37:48.059Z,2.70
2023-05-13T03:40:16.026Z,2.90
2023-05-13T03:42:43.175Z,2.90
2023-05-13T03:45:11.256Z,2.90
2023-05-13T03:47:39.291Z,2.80
2023-05-13T03:50:08.823Z,2.60
2023-05-13T03:52:40.482Z,3.10
2023-05-13T03:55:08.041Z,2.60
2023-05-13T03:57:35.705Z,2.60
2023-05-13T04:00:03.606Z,2.70
2023-05-13T04:02:42.192Z,3.10
2023-05-13T04:05:09.514Z,2.90
2023-05-13T04:07:37.652Z,3.00
2023-05-13T04:10:05.483Z,2.70
2023-05-13T04:12:33.035Z,3.10
2023-05-13T04:15:01.128Z,2.90
2023-05-13T04:17:28.506Z,2.70
2023-05-13T04:19:55.711Z,2.90
2023-05-13T04:22:23.988Z,2.70
2023-05-13T04:24:55.851Z,2.40
2023-05-13T04:27:23.681Z,2.50
2023-05-13T04:29:53.165Z,2.50
2023-05-13T04:32:23.216Z,2.90
2023-05-13T04:34:53.863Z,3.20
2023-05-13T04:37:21.121Z,2.80
2023-05-13T04:39:49.293Z,2.40
2023-05-13T04:42:17.679Z,3.00
2023-05-13T04:44:45.025Z,2.50
2023-05-13T04:47:12.077Z,2.60
2023-05-13T04:49:39.218Z,2.20
2023-05-13T04:52:06.705Z,2.60
2023-05-13T04:54:35.570Z,2.80
2023-05-13T04:57:03.039Z,2.50
2023-05-13T04:59:31.103Z,2.70
2023-05-13T05:01:58.396Z,2.50
2023-05-13T05:04:26.626Z,2.90
2023-05-13T05:06:53.901Z,2.50
2023-05-13T05:09:22.166Z,2.20
2023-05-13T05:11:51.041Z,2.50
2023-05-13T05:14:20.241Z,2.40
2023-05-13T05:16:48.275Z,2.50
2023-05-13T05:19:15.603Z,2.80
2023-05-13T05:21:43.052Z,2.70
2023-05-13T05:24:10.579Z,2.00
2023-05-13T05:26:37.727Z,2.50
2023-05-13T05:29:05.896Z,2.40
2023-05-13T05:34:57.747Z,2.80
2023-05-13T05:37:24.893Z,2.80
2023-05-13T05:39:51.943Z,3.10
2023-05-13T05:42:18.985Z,2.50
2023-05-13T05:44:46.350Z,2.70
2023-05-13T05:47:13.610Z,2.70
2023-05-13T05:49:40.744Z,2.80
2023-05-13T05:52:07.890Z,2.80
2023-05-13T05:54:34.937Z,3.10
2023-05-13T05:57:02.189Z,2.40
2023-05-13T05:59:29.447Z,2.70
2023-05-13T06:01:56.548Z,2.90
2023-05-13T06:04:25.146Z,2.80
2023-05-13T06:06:52.568Z,2.40
2023-05-13T06:09:20.287Z,2.50
2023-05-13T06:11:49.283Z,2.40
2023-05-13T06:14:17.456Z,2.70
2023-05-13T06:16:44.508Z,2.80
2023-05-13T06:19:11.735Z,2.60
2023-05-13T06:21:38.939Z,2.10
2023-05-13T06:24:06.976Z,2.50
2023-05-13T06:26:33.946Z,2.90
2023-05-13T06:29:01.072Z,2.60
2023-05-13T06:31:28.144Z,2.60
2023-05-13T06:33:55.279Z,2.90
2023-05-13T06:36:24.929Z,2.70
2023-05-13T06:38:53.361Z,2.50
2023-05-13T06:41:22.968Z,2.90
2023-05-13T06:43:51.547Z,2.40
2023-05-13T06:46:22.738Z,2.20
2023-05-13T06:48:52.616Z,2.30
2023-05-13T06:51:19.852Z,2.40
2023-05-13T06:53:47.618Z,2.60
2023-05-13T06:56:14.663Z,2.60
2023-05-13T06:58:41.711Z,2.50
2023-05-13T07:01:08.794Z,2.00
2023-05-13T07:03:36.634Z,2.00
2023-05-13T07:06:04.814Z,2.50
2023-05-13T07:08:31.841Z,2.20
2023-05-13T07:10:58.897Z,2.40
2023-05-13T07:13:26.038Z,2.00
2023-05-13T07:15:53.286Z,2.40
2023-05-13T07:18:20.410Z,3.00
2023-05-13T07:20:47.584Z,2.70
2023-05-13T07:23:14.633Z,3.60
2023-05-13T07:25:41.795Z,4.30
2023-05-13T07:28:09.648Z,3.60
2023-05-13T07:30:36.722Z,4.00
2023-05-13T07:33:03.995Z,3.00
2023-05-13T07:35:31.407Z,2.90
2023-05-13T07:37:58.455Z,3.10
2023-05-13T07:40:25.797Z,2.40
2023-05-13T07:42:52.881Z,3.00
2023-05-13T07:45:20.070Z,2.30
2023-05-13T07:47:47.294Z,2.60
2023-05-13T07:50:14.510Z,2.30
2023-05-13T07:52:42.064Z,2.40
2023-05-13T07:55:11.000Z,2.30
2023-05-13T07:57:38.115Z,2.50
2023-05-13T08:00:06.098Z,2.40
2023-05-13T08:02:40.086Z,2.70
2023-05-13T08:05:07.930Z,2.30
2023-05-13T08:07:35.105Z,2.10
2023-05-13T08:10:02.151Z,2.50
2023-05-13T08:12:29.204Z,1.90
2023-05-13T08:14:56.243Z,2.20
2023-05-13T08:17:23.572Z,2.10
2023-05-13T08:19:50.757Z,2.50
2023-05-13T08:22:17.747Z,2.30
2023-05-13T08:24:44.860Z,2.40
2023-05-13T08:27:13.091Z,2.30
2023-05-13T08:29:42.217Z,2.20
2023-05-13T08:32:09.475Z,2.50
2023-05-13T08:34:37.055Z,2.90
2023-05-13T08:37:04.582Z,2.60
2023-05-13T08:39:31.728Z,2.60
2023-05-13T08:41:58.775Z,2.70
2023-05-13T08:44:29.004Z,2.60
2023-05-13T08:47:22.474Z,2.60
2023-05-13T08:49:50.027Z,2.60
2023-05-13T08:52:18.760Z,2.40
2023-05-13T08:54:46.085Z,2.50
2023-05-13T08:57:13.147Z,2.10
2023-05-13T08:59:40.185Z,2.50
2023-05-13T09:02:07.307Z,2.40
2023-05-13T09:04:37.918Z,2.40
2023-05-13T09:07:08.288Z,2.40
2023-05-13T09:09:36.029Z,2.40
2023-05-13T09:12:03.788Z,2.10
2023-05-13T09:14:34.422Z,2.00
2023-05-13T09:17:01.899Z,2.00
2023-05-13T09:19:29.080Z,2.20
2023-05-13T09:21:57.402Z,1.80
2023-05-13T09:24:24.552Z,2.60
2023-05-13T09:26:51.939Z,2.20
2023-05-13T09:29:31.147Z,2.20
2023-05-13T09:32:01.007Z,2.40
2023-05-13T09:34:30.864Z,2.20
2023-05-13T09:36:57.888Z,2.00
2023-05-13T09:39:25.057Z,1.80
2023-05-13T09:41:53.031Z,2.40
2023-05-13T09:44:21.645Z,2.00
2023-05-13T09:46:48.796Z,1.50
2023-05-13T09:49:15.909Z,2.00
2023-05-13T09:51:44.180Z,2.00
2023-05-13T09:54:12.596Z,1.90
2023-05-13T09:56:40.041Z,1.90
2023-05-13T09:59:07.009Z,2.60
2023-05-13T10:01:35.383Z,1.80
2023-05-13T10:04:03.490Z,1.90
2023-05-13T10:06:30.771Z,2.10
2023-05-13T10:08:59.024Z,2.10
2023-05-13T10:11:26.029Z,2.00
2023-05-13T10:13:56.188Z,2.40
2023-05-13T10:16:24.151Z,2.00
2023-05-13T10:18:52.096Z,2.20
2023-05-13T10:21:22.172Z,2.00
2023-05-13T10:23:52.113Z,1.90
2023-05-13T10:26:20.467Z,1.90
2023-05-13T10:28:48.656Z,2.00
2023-05-13T10:31:16.629Z,2.00
2023-05-13T10:33:43.847Z,2.00
2023-05-13T10:36:21.545Z,2.00
2023-05-13T10:39:16.570Z,1.70
2023-05-13T10:42:08.784Z,2.20
2023-05-13T10:44:35.947Z,2.10
2023-05-13T10:47:03.287Z,1.80
2023-05-13T10:49:34.886Z,2.40
2023-05-13T10:52:06.401Z,1.90
2023-05-13T10:54:38.978Z,1.70
2023-05-13T10:57:06.527Z,1.80
2023-05-13T10:59:35.616Z,2.00
2023-05-13T11:02:04.186Z,2.20
2023-05-13T11:04:31.453Z,1.90
2023-05-13T11:06:59.119Z,1.90
2023-05-13T11:09:26.576Z,2.20
2023-05-13T11:11:54.449Z,1.60
2023-05-13T11:14:22.720Z,1.70
2023-05-13T11:17:02.195Z,1.80
2023-05-13T11:19:30.819Z,1.70
2023-05-13T11:21:59.358Z,1.60
2023-05-13T11:24:26.552Z,1.80
2023-05-13T11:26:56.649Z,1.90
2023-05-13T11:29:32.268Z,1.70
2023-05-13T11:32:01.208Z,1.80
2023-05-13T11:34:28.596Z,1.80
2023-05-13T11:37:05.051Z,1.80
2023-05-13T11:39:32.612Z,1.90
2023-05-13T11:42:02.047Z,1.50
2023-05-13T11:44:29.073Z,1.80
2023-05-13T11:46:56.530Z,1.80
2023-05-13T11:49:33.838Z,1.80
2023-05-13T11:52:02.504Z,2.10
2023-05-13T11:54:29.640Z,1.80
2023-05-13T11:56:56.804Z,1.60
2023-05-13T11:59:24.285Z,2.10
2023-05-13T12:02:01.805Z,1.70
2023-05-13T12:04:32.090Z,1.70
2023-05-13T12:06:59.315Z,2.10
2023-05-13T12:09:26.377Z,2.00
2023-05-13T12:11:54.129Z,2.20
2023-05-13T12:14:21.202Z,2.10
2023-05-13T12:16:48.607Z,1.90
2023-05-13T12:19:15.946Z,2.00
2023-05-13T12:21:43.152Z,2.00
2023-05-13T12:24:20.745Z,1.80
2023-05-13T12:26:48.186Z,1.70
2023-05-13T12:29:15.334Z,1.80
2023-05-13T12:31:43.885Z,2.10
2023-05-13T12:34:11.307Z,1.80
2023-05-13T12:36:39.131Z,1.80
2023-05-13T12:39:07.824Z,2.00
2023-05-13T12:41:36.207Z,1.90
2023-05-13T12:44:10.516Z,2.10
2023-05-13T12:46:38.017Z,2.20
2023-05-13T12:49:05.634Z,2.10
2023-05-13T12:51:35.583Z,2.10
2023-05-13T12:54:02.575Z,1.80
2023-05-13T12:56:29.637Z,1.80
2023-05-13T12:58:56.900Z,1.90
2023-05-13T13:01:23.985Z,2.10
2023-05-13T13:03:51.149Z,1.80
2023-05-13T13:06:18.338Z,1.80
2023-05-13T13:08:46.033Z,3.10
2023-05-13T13:11:19.063Z,2.20
2023-05-13T13:13:46.688Z,2.20
2023-05-13T13:16:14.343Z,1.70
2023-05-13T13:18:42.056Z,1.60
2023-05-13T13:21:10.567Z,2.20
2023-05-13T13:23:37.729Z,2.20
2023-05-13T13:26:04.864Z,1.70
2023-05-13T13:28:32.031Z,1.80
2023-05-13T13:31:00.309Z,1.90
2023-05-13T13:33:27.739Z,1.80
2023-05-13T13:35:54.987Z,2.30
2023-05-13T13:38:37.188Z,1.60
2023-05-13T13:41:04.242Z,1.70
2023-05-13T13:43:31.387Z,1.50
2023-05-13T13:45:58.769Z,1.60
2023-05-13T13:48:26.098Z,1.50
2023-05-13T13:50:54.373Z,1.80
2023-05-13T13:53:22.034Z,1.80
2023-05-13T13:55:49.181Z,1.40
2023-05-13T13:58:16.541Z,1.60
2023-05-13T14:00:43.589Z,1.70
2023-05-13T14:03:10.734Z,1.40
2023-05-13T14:05:37.984Z,1.80
2023-05-13T14:08:05.951Z,1.70
2023-05-13T14:10:33.203Z,1.70
2023-05-13T14:13:00.249Z,1.80
2023-05-13T14:15:29.140Z,1.70
2023-05-13T14:17:56.642Z,1.70
2023-05-13T14:20:25.139Z,1.90
2023-05-13T14:22:52.435Z,1.80
2023-05-13T14:25:19.481Z,2.00
2023-05-13T14:27:46.533Z,2.40
2023-05-13T14:30:13.683Z,2.10
2023-05-13T14:32:45.287Z,2.00
2023-05-13T14:35:13.128Z,2.00
2023-05-13T14:37:40.870Z,2.10
2023-05-13T14:40:09.721Z,1.60
2023-05-13T14:42:36.752Z,2.00
2023-05-13T14:45:04.665Z,1.60
2023-05-13T14:47:32.202Z,1.40
2023-05-13T14:49:59.306Z,1.60
2023-05-13T14:52:26.324Z,1.80
2023-05-13T14:54:54.382Z,1.80
2023-05-13T14:57:21.530Z,2.00
2023-05-13T14:59:48.695Z,1.80
2023-05-13T15:02:17.758Z,1.70
2023-05-13T15:04:44.921Z,1.80
2023-05-13T15:07:12.030Z,1.80
2023-05-13T15:09:39.220Z,2.00
2023-05-13T15:12:07.507Z,2.00
2023-05-13T15:14:34.463Z,1.80
2023-05-13T15:17:01.571Z,2.40
2023-05-13T15:19:28.853Z,2.00
2023-05-13T15:21:56.305Z,1.90
2023-05-13T15:24:23.554Z,1.90
2023-05-13T15:26:50.908Z,1.80
2023-05-13T15:29:18.062Z,1.80
2023-05-13T15:31:45.212Z,1.80
2023-05-13T15:34:12.370Z,2.00
2023-05-13T15:36:39.611Z,2.20
2023-05-13T15:39:06.880Z,1.70
2023-05-13T15:41:33.910Z,1.40
2023-05-13T15:44:00.962Z,1.80
2023-05-13T15:46:28.188Z,2.00
2023-05-13T15:48:55.671Z,1.70
2023-05-13T15:51:23.017Z,1.70
2023-05-13T15:53:50.063Z,2.10
2023-05-13T15:56:17.114Z,1.80
2023-05-13T15:58:44.261Z,2.00
2023-05-13T16:01:11.573Z,1.70
2023-05-13T16:03:38.868Z,2.00
2023-05-13T16:06:06.119Z,2.10
2023-05-13T16:08:33.177Z,2.40
2023-05-13T16:11:00.522Z,2.00
2023-05-13T16:13:27.780Z,2.10
2023-05-13T16:15:54.870Z,1.90
2023-05-13T16:18:22.171Z,1.40
2023-05-13T16:20:49.224Z,1.60
2023-05-13T16:23:16.471Z,2.00
2023-05-13T16:25:43.840Z,2.00
2023-05-13T16:28:10.982Z,2.00
2023-05-13T16:30:38.790Z,2.40
2023-05-13T16:33:06.029Z,2.10
2023-05-13T16:35:33.563Z,1.90
2023-05-13T16:38:00.809Z,2.10
2023-05-13T16:40:28.001Z,2.00
2023-05-13T16:42:57.111Z,2.40
2023-05-13T16:45:26.445Z,1.80
2023-05-13T16:47:53.977Z,2.10
2023-05-13T16:50:21.680Z,2.20
2023-05-13T16:52:49.020Z,1.80
2023-05-13T16:55:16.173Z,1.70
2023-05-13T16:57:43.682Z,1.90
2023-05-13T17:00:11.842Z,1.50
2023-05-13T17:02:39.211Z,1.90
2023-05-13T17:05:06.928Z,1.70
2023-05-13T17:07:33.977Z,1.60
2023-05-13T17:10:01.011Z,1.70
2023-05-13T17:12:28.366Z,1.60
2023-05-13T17:14:56.040Z,1.40
2023-05-13T17:17:23.104Z,1.40
2023-05-13T17:19:50.163Z,1.70
2023-05-13T17:22:17.272Z,1.70
2023-05-13T17:24:44.420Z,1.90
2023-05-13T17:27:11.677Z,1.80
2023-05-13T17:29:38.726Z,1.70
2023-05-13T17:32:06.787Z,1.70
2023-05-13T17:34:33.853Z,1.60
2023-05-13T17:37:01.022Z,2.00
2023-05-13T17:39:28.570Z,1.90
2023-05-13T17:41:55.905Z,1.90
2023-05-13T17:44:24.204Z,1.70
2023-05-13T17:46:51.230Z,2.00
2023-05-13T17:49:18.553Z,1.90
2023-05-13T17:51:46.142Z,1.60
2023-05-13T17:54:14.362Z,1.70
2023-05-13T17:56:41.410Z,2.10
2023-05-13T17:59:08.505Z,1.90
2023-05-13T18:01:35.697Z,2.10
2023-05-13T18:04:02.904Z,2.20
2023-05-13T18:06:29.953Z,2.10
2023-05-13T18:08:57.083Z,2.50
2023-05-13T18:11:24.154Z,2.50
2023-05-13T18:13:51.341Z,2.10
2023-05-13T18:16:19.544Z,2.00
2023-05-13T18:18:49.001Z,2.00
2023-05-13T18:21:16.429Z,2.20
2023-05-13T18:23:46.163Z,2.20
2023-05-13T18:26:13.596Z,2.00
2023-05-13T18:28:41.674Z,2.10
2023-05-13T18:31:08.752Z,2.00
2023-05-13T18:33:35.711Z,2.20
2023-05-13T18:36:02.814Z,2.10
2023-05-13T18:38:29.974Z,2.40
2023-05-13T18:41:01.823Z,2.00
2023-05-13T18:43:30.312Z,1.80
2023-05-13T18:45:58.155Z,1.90
2023-05-13T18:48:25.540Z,2.10
2023-05-13T18:54:16.451Z,2.40
2023-05-13T18:56:44.229Z,2.20
2023-05-13T18:59:11.568Z,2.40
2023-05-13T19:01:38.681Z,1.90
2023-05-13T19:04:05.937Z,1.80
2023-05-13T19:06:36.414Z,2.00
2023-05-13T19:09:03.568Z,2.20
2023-05-13T19:11:31.305Z,2.30
2023-05-13T19:13:58.768Z,1.90
2023-05-13T19:16:26.052Z,1.80
2023-05-13T19:18:53.730Z,2.20
2023-05-13T19:21:23.589Z,2.20
2023-05-13T19:23:50.947Z,2.50
2023-05-13T19:26:18.035Z,2.60
2023-05-13T19:28:45.968Z,2.20
2023-05-13T19:31:13.340Z,2.00
2023-05-13T19:33:41.593Z,2.00
2023-05-13T19:36:10.382Z,2.30
2023-05-13T19:38:37.424Z,2.20
2023-05-13T19:41:04.478Z,2.40
2023-05-13T19:43:31.738Z,2.30
2023-05-13T19:45:58.869Z,2.20
2023-05-13T19:48:27.704Z,2.20
2023-05-13T19:50:58.086Z,2.30
2023-05-13T19:53:25.237Z,2.20
2023-05-13T19:55:52.586Z,2.10
2023-05-13T19:58:19.638Z,2.60
2023-05-13T20:00:46.684Z,2.20
2023-05-13T20:03:13.934Z,2.00
2023-05-13T20:05:43.952Z,2.10
2023-05-13T20:08:11.321Z,2.00
2023-05-13T20:10:40.615Z,1.90
2023-05-13T20:13:08.164Z,2.00
2023-05-13T20:15:35.218Z,2.30
2023-05-13T20:18:02.280Z,2.30
2023-05-13T20:20:29.587Z,2.30
2023-05-13T20:22:56.592Z,2.60
2023-05-13T20:25:23.618Z,2.80
2023-05-13T20:27:50.961Z,2.80
2023-05-13T20:30:18.431Z,2.60
2023-05-13T20:32:46.002Z,2.00
2023-05-13T20:35:13.330Z,2.00
2023-05-13T20:37:40.694Z,2.30
2023-05-13T20:40:08.577Z,2.40
2023-05-13T20:42:35.603Z,2.10
2023-05-13T20:45:04.170Z,2.40
2023-05-13T20:47:31.638Z,2.10
2023-05-13T20:49:58.687Z,2.40
2023-05-13T20:52:26.857Z,2.00
2023-05-13T20:54:53.909Z,2.10
2023-05-13T20:57:21.026Z,2.70
2023-05-13T20:59:48.101Z,2.90
2023-05-13T21:02:15.152Z,2.50
2023-05-13T21:04:42.302Z,2.40
2023-05-13T21:07:09.458Z,2.50
2023-05-13T21:09:36.803Z,2.50
2023-05-13T21:12:04.495Z,2.30
2023-05-13T21:14:31.532Z,2.80
2023-05-13T21:16:58.606Z,2.60
2023-05-13T21:19:25.703Z,2.40
2023-05-13T21:21:53.005Z,2.40
2023-05-13T21:24:20.103Z,2.40
2023-05-13T21:26:47.252Z,2.80
2023-05-13T21:29:14.553Z,2.70
2023-05-13T21:31:42.804Z,2.30
2023-05-13T21:34:10.236Z,2.60
2023-05-13T21:36:39.229Z,2.80
2023-05-13T21:39:07.307Z,2.30
2023-05-13T21:41:34.390Z,2.40
2023-05-13T21:44:01.597Z,2.40
2023-05-13T21:46:28.847Z,2.10
2023-05-13T21:48:56.310Z,2.50
2023-05-13T21:51:23.463Z,2.80
2023-05-13T21:53:50.602Z,2.80
2023-05-13T21:56:17.652Z,3.10
2023-05-13T21:58:44.903Z,2.70
2023-05-13T22:01:11.991Z,2.60
2023-05-13T22:03:39.335Z,2.30
2023-05-13T22:06:06.811Z,2.00
2023-05-13T22:08:33.909Z,3.10
2023-05-13T22:11:01.777Z,2.40
2023-05-13T22:13:28.825Z,2.90
2023-05-13T22:15:55.934Z,2.90
2023-05-13T22:18:23.801Z,2.30
2023-05-13T22:20:51.368Z,2.50
2023-05-13T22:23:18.649Z,2.40
2023-05-13T22:25:45.904Z,2.50
2023-05-13T22:28:13.362Z,2.40
2023-05-13T22:30:40.507Z,2.70
2023-05-13T22:33:07.609Z,2.80
2023-05-13T22:35:36.733Z,2.70
2023-05-13T22:38:04.524Z,2.50
2023-05-13T22:40:31.569Z,3.10
2023-05-13T22:42:58.611Z,3.00
2023-05-13T22:45:26.019Z,2.90
2023-05-13T22:47:53.525Z,2.80
2023-05-13T22:50:21.064Z,3.00
2023-05-13T22:52:48.336Z,3.00
2023-05-13T22:55:15.360Z,2.80
2023-05-13T22:57:42.430Z,3.30
2023-05-13T23:00:10.910Z,2.70
2023-05-13T23:02:37.993Z,3.10
2023-05-13T23:05:05.835Z,2.80
2023-05-13T23:07:32.870Z,3.30
2023-05-13T23:09:59.915Z,3.10
2023-05-13T23:12:27.473Z,3.40
2023-05-13T23:14:54.519Z,3.40
2023-05-13T23:17:21.796Z,3.40
2023-05-13T23:19:48.928Z,3.40
2023-05-13T23:22:15.996Z,3.50
2023-05-13T23:24:43.326Z,3.40
2023-05-13T23:27:10.372Z,4.10
2023-05-13T23:29:37.419Z,3.70
2023-05-13T23:32:06.671Z,3.70
2023-05-13T23:34:34.277Z,3.80
2023-05-13T23:37:01.628Z,3.20
2023-05-13T23:39:28.677Z,3.60
2023-05-13T23:41:55.838Z,3.50
2023-05-13T23:44:23.430Z,3.30
2023-05-13T23:46:50.919Z,3.50
2023-05-13T23:49:18.501Z,3.30
2023-05-13T23:51:45.756Z,3.30
2023-05-13T23:54:12.800Z,3.70
2023-05-13T23:56:39.849Z,3.20
2023-05-13T23:59:08.659Z,3.40
